Time;durP1;ratioP1;P1;durP2;ratioP2;P2;SDS_P1;SDS_P2;PMS_P1;PMS_P2;Temp;Humidity;BMP_temperature;BMP_pressure;BME280_temperature;BME280_humidity;BME280_pressure;Samples;Min_cycle;Max_cycle;Signal;HPM_P1;HPM_P2
2021/06/24 00:02:22;;;;;;;28.33;10.98;;;640.40;2073.60;;;;;;5072083;28;20462;-55
2021/06/24 00:04:48;;;;;;;21.67;10.35;;;640.30;2099.20;;;;;;5072385;28;20037;-55
2021/06/24 00:07:14;;;;;;;20.02;10.73;;;640.30;2099.20;;;;;;5072530;28;20025;-57
2021/06/24 00:09:39;;;;;;;22.05;11.30;;;640.20;2124.80;;;;;;5072298;28;20032;-56
2021/06/24 00:12:05;;;;;;;20.48;10.75;;;640.20;2099.20;;;;;;5072490;28;20027;-60
2021/06/24 00:14:31;;;;;;;21.83;11.57;;;640.30;2073.60;;;;;;5071965;28;20059;-55
2021/06/24 00:16:57;;;;;;;27.33;10.80;;;640.40;2073.60;;;;;;5072592;28;20103;-56
2021/06/24 00:19:23;;;;;;;17.92;10.65;;;640.20;2073.60;;;;;;5072338;28;20453;-68
2021/06/24 00:21:49;;;;;;;19.77;10.27;;;640.20;2099.20;;;;;;5072268;28;20024;-55
2021/06/24 00:24:14;;;;;;;22.42;9.82;;;640.10;2099.20;;;;;;5072029;28;20036;-55
2021/06/24 00:26:40;;;;;;;18.83;9.68;;;640.10;2124.80;;;;;;5072158;28;20419;-56
2021/06/24 00:29:06;;;;;;;22.27;11.02;;;640.00;2124.80;;;;;;5072410;28;20021;-56
2021/06/24 00:31:32;;;;;;;23.45;10.05;;;615.20;2176.00;;;;;;5071731;28;20027;-56
2021/06/24 00:33:57;;;;;;;18.48;10.52;;;615.30;2201.60;;;;;;5071933;28;20021;-55
2021/06/24 00:36:23;;;;;;;25.15;11.27;;;615.30;2201.60;;;;;;5072027;28;20115;-55
2021/06/24 00:38:49;;;;;;;23.95;12.07;;;615.20;2227.20;;;;;;5071869;28;20029;-56
2021/06/24 00:41:15;;;;;;;28.60;11.48;;;615.10;2227.20;;;;;;5071786;28;20032;-56
2021/06/24 00:43:41;;;;;;;21.10;10.95;;;615.10;2227.20;;;;;;5071457;28;20040;-57
2021/06/24 00:46:07;;;;;;;24.45;11.23;;;615.10;2227.20;;;;;;5071668;28;20035;-56
2021/06/24 00:48:33;;;;;;;24.52;11.50;;;615.10;2227.20;;;;;;5071776;28;20474;-58
2021/06/24 00:50:59;;;;;;;27.02;10.80;;;615.10;2201.60;;;;;;5071327;28;20386;-56
2021/06/24 00:53:25;;;;;;;25.58;11.75;;;615.10;2201.60;;;;;;5071409;28;20025;-57
2021/06/24 00:55:51;;;;;;;32.95;12.35;;;615.10;2176.00;;;;;;5071400;28;20039;-56
2021/06/24 00:58:20;;;;;;;16.20;10.93;;;615.10;2201.60;;;;;;5071728;28;20017;-60
2021/06/24 01:00:49;;;;;;;21.15;10.98;;;615.00;2201.60;;;;;;5071589;28;20028;-56
2021/06/24 01:03:16;;;;;;;24.73;11.15;;;615.00;2252.80;;;;;;5071434;28;20024;-57
2021/06/24 01:05:43;;;;;;;30.40;12.05;;;614.80;2252.80;;;;;;5071272;28;20028;-55
2021/06/24 01:08:10;;;;;;;27.05;12.23;;;614.90;2252.80;;;;;;5071238;28;20466;-56
2021/06/24 01:10:37;;;;;;;22.25;11.75;;;614.90;2252.80;;;;;;5071314;28;20486;-58
2021/06/24 01:13:04;;;;;;;22.23;12.45;;;614.90;2252.80;;;;;;5071353;28;20129;-55
2021/06/24 01:15:30;;;;;;;23.80;12.38;;;614.90;2252.80;;;;;;5070662;28;20047;-55
2021/06/24 01:17:58;;;;;;;20.50;11.88;;;614.80;2278.40;;;;;;5071405;28;20025;-56
2021/06/24 01:20:26;;;;;;;18.08;12.27;;;614.80;2278.40;;;;;;5071264;28;20040;-58
2021/06/24 01:22:52;;;;;;;22.00;12.35;;;614.70;2304.00;;;;;;5070822;28;20031;-57
2021/06/24 01:25:19;;;;;;;22.40;12.57;;;614.60;2304.00;;;;;;5070941;28;20069;-56
2021/06/24 01:27:45;;;;;;;22.92;12.20;;;614.70;2304.00;;;;;;5070899;28;20025;-55
2021/06/24 01:30:11;;;;;;;28.00;13.98;;;614.50;2329.60;;;;;;5070830;28;20146;-55
2021/06/24 01:32:37;;;;;;;22.63;13.55;;;614.50;2355.20;;;;;;5070999;28;20092;-55
2021/06/24 01:35:04;;;;;;;27.98;11.90;;;589.70;2329.60;;;;;;5070874;28;20116;-66
2021/06/24 01:37:30;;;;;;;28.38;12.43;;;614.40;2355.20;;;;;;5070696;28;20489;-55
2021/06/24 01:39:56;;;;;;;32.10;14.80;;;614.50;2329.60;;;;;;5070850;28;20024;-55
2021/06/24 01:42:22;;;;;;;25.75;12.90;;;614.50;2329.60;;;;;;5070618;28;20501;-55
2021/06/24 01:44:47;;;;;;;25.98;12.85;;;614.40;2355.20;;;;;;5070553;28;20040;-56
2021/06/24 01:47:13;;;;;;;22.40;13.98;;;589.70;2380.80;;;;;;5070596;28;20478;-55
2021/06/24 01:49:39;;;;;;;30.27;13.27;;;589.70;2380.80;;;;;;5070091;28;20107;-55
2021/06/24 01:52:06;;;;;;;21.55;12.88;;;614.40;2355.20;;;;;;5052454;28;20024;-55
2021/06/24 01:54:32;;;;;;;22.45;12.85;;;589.70;2355.20;;;;;;5070575;28;20035;-55
2021/06/24 01:56:58;;;;;;;35.70;14.13;;;589.70;2380.80;;;;;;5069542;28;20025;-57
2021/06/24 01:59:23;;;;;;;30.92;11.95;;;589.70;2380.80;;;;;;5070303;28;20028;-55
2021/06/24 02:01:49;;;;;;;24.75;14.32;;;589.50;2406.40;;;;;;5070192;28;20090;-56
2021/06/24 02:04:15;;;;;;;25.17;13.40;;;589.60;2380.80;;;;;;5070220;28;20032;-55
2021/06/24 02:06:41;;;;;;;29.08;13.30;;;589.60;2380.80;;;;;;5070112;28;20028;-54
2021/06/24 02:09:07;;;;;;;27.48;13.65;;;589.70;2380.80;;;;;;5070170;28;20021;-55
2021/06/24 02:11:33;;;;;;;23.23;13.18;;;614.40;2355.20;;;;;;5070257;28;20048;-55
2021/06/24 02:13:59;;;;;;;28.13;14.43;;;589.70;2380.80;;;;;;5069533;28;20099;-59
2021/06/24 02:16:26;;;;;;;28.30;13.98;;;589.70;2380.80;;;;;;5070160;28;20119;-55
2021/06/24 02:18:53;;;;;;;28.80;15.10;;;589.70;2380.80;;;;;;5070201;28;20054;-55
2021/06/24 02:21:18;;;;;;;29.55;15.52;;;589.70;2406.40;;;;;;5070040;28;20028;-55
2021/06/24 02:23:44;;;;;;;30.80;14.27;;;589.60;2432.00;;;;;;5070017;28;20025;-55
2021/06/24 02:26:11;;;;;;;27.17;14.30;;;589.50;2432.00;;;;;;5069802;28;20025;-59
2021/06/24 02:28:37;;;;;;;30.88;15.23;;;589.50;2432.00;;;;;;5070181;28;20017;-53
2021/06/24 02:31:03;;;;;;;24.67;13.52;;;589.30;2432.00;;;;;;5069682;28;20035;-55
2021/06/24 02:33:31;;;;;;;26.52;14.73;;;589.20;2432.00;;;;;;5069873;28;20031;-55
2021/06/24 02:35:57;;;;;;;23.40;16.00;;;589.20;2432.00;;;;;;5070019;28;20074;-55
2021/06/24 02:38:25;;;;;;;22.40;15.20;;;589.10;2432.00;;;;;;5069863;28;20029;-56
2021/06/24 02:40:52;;;;;;;24.85;14.73;;;589.10;2432.00;;;;;;5069831;28;20021;-55
2021/06/24 02:43:17;;;;;;;25.50;15.30;;;589.20;2432.00;;;;;;5069817;28;20074;-58
2021/06/24 02:45:44;;;;;;;26.60;15.43;;;589.20;2432.00;;;;;;5069862;28;20111;-55
2021/06/24 02:48:10;;;;;;;31.75;17.25;;;589.10;2432.00;;;;;;5069768;28;20029;-55
2021/06/24 02:50:36;;;;;;;24.15;15.95;;;589.10;2432.00;;;;;;5070002;28;20383;-55
2021/06/24 02:53:02;;;;;;;24.88;14.32;;;589.10;2432.00;;;;;;5051621;28;20024;-56
2021/06/24 02:55:30;;;;;;;29.17;15.95;;;589.10;2432.00;;;;;;5051718;28;20031;-55
2021/06/24 02:57:58;;;;;;;28.70;16.85;;;589.20;2432.00;;;;;;5069637;28;20028;-55
2021/06/24 03:00:24;;;;;;;25.17;14.57;;;589.20;2432.00;;;;;;5069790;28;20032;-55
2021/06/24 03:02:50;;;;;;;28.88;17.90;;;589.30;2432.00;;;;;;5069853;28;20082;-55
2021/06/24 03:05:16;;;;;;;30.13;16.33;;;589.40;2432.00;;;;;;5069862;28;20033;-55
2021/06/24 03:07:42;;;;;;;28.27;16.23;;;589.40;2432.00;;;;;;5069544;28;20086;-54
2021/06/24 03:10:09;;;;;;;26.83;16.58;;;589.50;2432.00;;;;;;5069791;28;20035;-55
2021/06/24 03:12:35;;;;;;;30.08;17.98;;;589.50;2432.00;;;;;;5069756;28;20438;-55
2021/06/24 03:15:03;;;;;;;30.25;15.38;;;589.60;2432.00;;;;;;5069039;28;20075;-54
2021/06/24 03:17:28;;;;;;;27.85;16.35;;;589.60;2432.00;;;;;;5069422;28;20032;-55
2021/06/24 03:19:54;;;;;;;28.33;16.05;;;589.60;2432.00;;;;;;5069728;28;20024;-55
2021/06/24 03:22:20;;;;;;;23.30;15.30;;;589.40;2432.00;;;;;;5069394;28;20024;-55
2021/06/24 03:24:46;;;;;;;29.67;16.17;;;589.10;2432.00;;;;;;5070742;28;20040;-55
2021/06/24 03:27:11;;;;;;;25.45;16.48;;;589.10;2432.00;;;;;;5073014;28;20031;-55
2021/06/24 03:29:37;;;;;;;26.60;17.25;;;589.30;2432.00;;;;;;5073513;28;20020;-54
2021/06/24 03:32:04;;;;;;;24.13;16.38;;;589.20;2432.00;;;;;;5072999;28;20503;-54
2021/06/24 03:34:29;;;;;;;27.35;16.05;;;589.50;2432.00;;;;;;5072951;28;20071;-55
2021/06/24 03:36:55;;;;;;;32.28;15.77;;;589.70;2432.00;;;;;;5073204;28;20044;-56
2021/06/24 03:39:21;;;;;;;35.45;16.92;;;614.40;2432.00;;;;;;5072845;28;20104;-55
2021/06/24 03:41:47;;;;;;;29.40;17.40;;;614.50;2432.00;;;;;;5073151;28;20470;-55
2021/06/24 03:44:12;;;;;;;31.23;15.13;;;614.50;2432.00;;;;;;5072653;28;20060;-55
2021/06/24 03:46:38;;;;;;;25.45;16.73;;;614.70;2432.00;;;;;;5072892;28;20486;-55
2021/06/24 03:49:05;;;;;;;35.92;16.90;;;614.80;2432.00;;;;;;5072968;28;20486;-57
2021/06/24 03:51:31;;;;;;;29.98;15.32;;;614.80;2432.00;;;;;;5072002;28;20019;-60
2021/06/24 03:53:57;;;;;;;27.77;15.32;;;614.90;2432.00;;;;;;5072540;28;20029;-55
2021/06/24 03:56:23;;;;;;;27.92;16.05;;;615.00;2406.40;;;;;;5071942;28;20021;-56
2021/06/24 03:58:49;;;;;;;30.55;14.75;;;640.00;2355.20;;;;;;5072587;28;20029;-55
2021/06/24 04:01:15;;;;;;;29.58;15.48;;;615.30;2380.80;;;;;;5072721;28;20024;-55
2021/06/24 04:03:41;;;;;;;26.33;15.30;;;615.30;2380.80;;;;;;5072388;28;20440;-55
2021/06/24 04:06:07;;;;;;;33.97;16.30;;;615.30;2380.80;;;;;;5072677;28;20489;-54
2021/06/24 04:08:33;;;;;;;25.00;15.27;;;640.00;2380.80;;;;;;5072316;28;20037;-55
2021/06/24 04:10:59;;;;;;;25.88;15.38;;;615.30;2380.80;;;;;;5071850;28;20047;-54
2021/06/24 04:13:25;;;;;;;28.83;15.60;;;640.10;2355.20;;;;;;5072272;28;20083;-55
2021/06/24 04:15:51;;;;;;;23.08;14.70;;;640.40;2329.60;;;;;;5072028;28;20072;-55
2021/06/24 04:18:17;;;;;;;28.23;16.48;;;640.60;2304.00;;;;;;5072511;28;20028;-54
2021/06/24 04:20:42;;;;;;;31.83;15.35;;;640.90;2278.40;;;;;;5072156;28;20029;-54
2021/06/24 04:23:08;;;;;;;26.55;15.13;;;665.80;2278.40;;;;;;5072231;28;20104;-55
2021/06/24 04:25:34;;;;;;;33.92;15.50;;;666.20;2227.20;;;;;;5072228;28;20055;-56
2021/06/24 04:28:00;;;;;;;23.73;14.57;;;666.30;2227.20;;;;;;5071976;28;20373;-55
2021/06/24 04:30:27;;;;;;;26.23;14.73;;;666.30;2201.60;;;;;;5072378;28;20131;-54
2021/06/24 04:32:54;;;;;;;22.80;15.13;;;691.30;2176.00;;;;;;5071965;28;20048;-55
2021/06/24 04:35:20;;;;;;;24.33;15.25;;;691.40;2150.40;;;;;;5071546;28;20028;-55
2021/06/24 04:37:46;;;;;;;26.52;14.40;;;691.90;2099.20;;;;;;5072024;28;20364;-56
2021/06/24 04:40:12;;;;;;;25.73;12.98;;;716.90;2073.60;;;;;;5071758;28;20106;-55
2021/06/24 04:42:38;;;;;;;25.35;13.48;;;717.40;2022.40;;;;;;5071966;28;20033;-55
2021/06/24 04:45:06;;;;;;;27.40;13.35;;;742.70;1996.80;;;;;;5071575;28;20127;-58
2021/06/24 04:47:32;;;;;;;27.25;14.10;;;768.00;1894.40;;;;;;5071755;28;20117;-55
2021/06/24 04:49:58;;;;;;;20.60;12.55;;;768.30;1920.00;;;;;;5071656;28;20067;-55
2021/06/24 04:52:24;;;;;;;31.60;14.18;;;768.60;1868.80;;;;;;5071721;28;20495;-55
2021/06/24 04:54:49;;;;;;;22.50;12.93;;;793.60;1843.20;;;;;;5071411;28;20025;-55
2021/06/24 04:57:15;;;;;;;23.35;13.10;;;794.00;1792.00;;;;;;5071734;28;20024;-55
2021/06/24 04:59:41;;;;;;;21.42;14.25;;;794.50;1740.80;;;;;;5071379;28;20412;-55
2021/06/24 05:02:07;;;;;;;20.67;12.57;;;819.30;1715.20;;;;;;5071650;28;20107;-55
2021/06/24 05:04:33;;;;;;;23.15;13.25;;;819.70;1689.60;;;;;;5071367;28;20044;-55
2021/06/24 05:07:08;;;;;;;23.25;14.05;;;844.80;1689.60;;;;;;5071207;28;20058;-55
2021/06/24 05:09:39;;;;;;;24.50;12.02;;;844.90;1664.00;;;;;;5071321;28;20029;-55
2021/06/24 05:12:06;;;;;;;28.50;12.93;;;819.80;1664.00;;;;;;5071283;28;20065;-53
2021/06/24 05:14:32;;;;;;;26.58;13.45;;;820.10;1638.40;;;;;;5070945;28;20048;-55
2021/06/24 05:16:58;;;;;;;27.45;13.75;;;844.90;1664.00;;;;;;5071253;28;20043;-55
2021/06/24 05:19:23;;;;;;;28.92;14.82;;;845.40;1612.80;;;;;;5071159;28;20395;-55
2021/06/24 05:21:49;;;;;;;21.75;13.10;;;870.70;1587.20;;;;;;5070961;28;20031;-55
2021/06/24 05:24:15;;;;;;;24.88;12.88;;;871.30;1510.40;;;;;;5070938;28;20036;-54
2021/06/24 05:26:41;;;;;;;16.27;11.73;;;896.80;1433.60;;;;;;5070817;28;20032;-58
2021/06/24 05:29:07;;;;;;;22.48;12.88;;;896.70;1433.60;;;;;;5070980;28;20025;-57
2021/06/24 05:31:33;;;;;;;21.75;12.20;;;896.90;1433.60;;;;;;5070799;28;20029;-57
2021/06/24 05:33:59;;;;;;;31.08;13.50;;;896.40;1459.20;;;;;;5070743;28;20108;-60
2021/06/24 05:36:25;;;;;;;25.70;11.63;;;896.60;1459.20;;;;;;5070827;28;20103;-56
2021/06/24 05:38:50;;;;;;;28.85;13.20;;;921.90;1433.60;;;;;;5070461;28;20070;-58
2021/06/24 05:41:16;;;;;;;22.92;14.45;;;948.00;1331.20;;;;;;5071045;28;20024;-57
2021/06/24 05:43:42;;;;;;;20.33;13.75;;;973.10;1305.60;;;;;;5070390;28;20024;-57
2021/06/24 05:46:08;;;;;;;24.75;14.20;;;973.70;1228.80;;;;;;5070270;28;20044;-57
2021/06/24 05:48:34;;;;;;;30.88;15.10;;;999.20;1203.20;;;;;;5069934;28;20029;-56
2021/06/24 05:51:00;;;;;;;23.63;14.10;;;998.90;1203.20;;;;;;5070310;28;20115;-57
2021/06/24 05:53:25;;;;;;;24.63;13.43;;;1024.30;1177.60;;;;;;5070482;28;20163;-56
2021/06/24 05:55:51;;;;;;;25.40;13.07;;;1024.30;1177.60;;;;;;5070148;28;20028;-57
2021/06/24 05:58:22;;;;;;;25.33;14.32;;;1024.10;1177.60;;;;;;5070351;28;20025;-57
2021/06/24 06:00:49;;;;;;;22.88;13.85;;;1024.10;1177.60;;;;;;5070429;28;20017;-57
2021/06/24 06:03:15;;;;;;;24.10;12.82;;;1024.50;1152.00;;;;;;5070446;28;20028;-57
2021/06/24 06:05:41;;;;;;;21.98;14.63;;;999.20;1203.20;;;;;;5070223;28;20029;-58
2021/06/24 06:08:08;;;;;;;20.98;14.40;;;999.00;1228.80;;;;;;5070360;28;20103;-57
2021/06/24 06:10:36;;;;;;;24.42;14.82;;;1024.60;1177.60;;;;;;5070254;28;20048;-57
2021/06/24 06:13:05;;;;;;;24.70;14.15;;;1049.90;1126.40;;;;;;5069970;28;20471;-56
2021/06/24 06:15:38;;;;;;;23.17;13.05;;;1050.40;1075.20;;;;;;5069661;28;20048;-58
2021/06/24 06:18:23;;;;;;;25.02;16.10;;;998.70;1203.20;;;;;;5070226;28;20078;-57
2021/06/24 06:20:49;;;;;;;19.75;13.65;;;1024.00;1177.60;;;;;;5070255;28;20040;-57
2021/06/24 06:23:17;;;;;;;27.42;14.65;;;1049.70;1177.60;;;;;;5070152;28;20024;-57
2021/06/24 06:25:44;;;;;;;28.77;13.75;;;1075.50;1075.20;;;;;;5070039;28;20086;-57
2021/06/24 06:28:11;;;;;;;20.25;11.27;;;1076.10;1049.60;;;;;;5069969;28;20103;-57
2021/06/24 06:30:37;;;;;;;27.50;11.52;;;1024.50;1152.00;;;;;;5070064;28;20024;-57
2021/06/24 06:33:03;;;;;;;27.77;13.30;;;973.60;1254.40;;;;;;5070124;28;20385;-57
2021/06/24 06:35:30;;;;;;;32.63;12.77;;;947.80;1305.60;;;;;;5069863;28;20052;-57
2021/06/24 06:37:56;;;;;;;25.35;12.55;;;947.70;1331.20;;;;;;5069995;28;20025;-58
2021/06/24 06:40:22;;;;;;;31.88;14.30;;;947.80;1356.80;;;;;;5069756;28;20119;-57
2021/06/24 06:42:48;;;;;;;28.95;13.10;;;973.00;1331.20;;;;;;5069902;28;20024;-57
2021/06/24 06:45:14;;;;;;;27.15;12.55;;;973.20;1305.60;;;;;;5069698;28;20390;-57
2021/06/24 06:47:40;;;;;;;25.88;13.38;;;973.20;1305.60;;;;;;5069615;28;20094;-57
2021/06/24 06:50:06;;;;;;;30.33;14.30;;;973.00;1305.60;;;;;;5069763;28;20056;-57
2021/06/24 06:52:32;;;;;;;31.38;14.55;;;972.80;1331.20;;;;;;5069462;28;20021;-57
2021/06/24 06:54:58;;;;;;;26.15;12.60;;;948.10;1305.60;;;;;;5069561;28;20021;-57
2021/06/24 06:57:23;;;;;;;30.52;12.30;;;922.40;1433.60;;;;;;5069872;28;20035;-58
2021/06/24 06:59:49;;;;;;;27.20;14.07;;;921.90;1484.80;;;;;;5072605;28;20024;-57
2021/06/24 07:02:15;;;;;;;30.65;13.98;;;922.50;1433.60;;;;;;5073749;28;20067;-57
2021/06/24 07:04:41;;;;;;;23.75;13.43;;;973.20;1382.40;;;;;;5073430;28;20546;-57
2021/06/24 07:07:06;;;;;;;28.95;16.10;;;999.00;1305.60;;;;;;5073812;28;20498;-57
2021/06/24 07:09:32;;;;;;;26.40;17.02;;;1050.40;1203.20;;;;;;5073401;28;20293;-57
2021/06/24 07:11:58;;;;;;;23.52;13.07;;;1100.80;1152.00;;;;;;5073680;28;20056;-57
2021/06/24 07:14:24;;;;;;;26.95;13.93;;;1075.70;1152.00;;;;;;5055328;28;20130;-57
2021/06/24 07:16:50;;;;;;;28.20;15.13;;;1050.30;1203.20;;;;;;5073467;28;20490;-57
2021/06/24 07:19:15;;;;;;;25.83;13.43;;;1101.00;1126.40;;;;;;5073642;28;20067;-57
2021/06/24 07:21:41;;;;;;;24.80;15.25;;;1101.70;1100.80;;;;;;5073234;28;20060;-57
2021/06/24 07:24:08;;;;;;;31.35;14.93;;;1152.20;1049.60;;;;;;5073312;28;20040;-57
2021/06/24 07:26:34;;;;;;;23.25;14.50;;;1127.00;1075.20;;;;;;5073402;28;20444;-57
2021/06/24 07:29:00;;;;;;;31.33;17.00;;;1178.50;998.40;;;;;;5073235;28;20033;-57
2021/06/24 07:31:26;;;;;;;31.17;15.23;;;1229.00;972.80;;;;;;5073327;28;20031;-57
2021/06/24 07:33:51;;;;;;;27.15;17.13;;;1254.80;921.60;;;;;;5072924;28;20024;-58
2021/06/24 07:36:17;;;;;;;29.55;16.60;;;1280.20;870.40;;;;;;5073230;28;20028;-57
2021/06/24 07:38:43;;;;;;;38.38;15.93;;;1255.10;844.80;;;;;;5073167;28;20061;-57
2021/06/24 07:41:09;;;;;;;28.88;15.52;;;1203.90;870.40;;;;;;5072935;28;20096;-57
2021/06/24 07:43:35;;;;;;;44.85;16.08;;;1177.80;921.60;;;;;;5072951;28;20063;-57
2021/06/24 07:46:00;;;;;;;26.55;16.55;;;1177.80;947.20;;;;;;5072517;28;20042;-57
2021/06/24 07:48:26;;;;;;;27.00;15.93;;;1203.70;870.40;;;;;;5073058;28;20032;-58
2021/06/24 07:50:52;;;;;;;37.38;16.15;;;1254.60;844.80;;;;;;5072627;28;20025;-58
2021/06/24 07:53:18;;;;;;;39.83;17.20;;;1254.80;819.20;;;;;;5072939;28;20024;-58
2021/06/24 07:55:44;;;;;;;40.38;16.42;;;1280.90;768.00;;;;;;5072789;28;20070;-57
2021/06/24 07:58:10;;;;;;;34.55;17.23;;;1280.70;742.40;;;;;;5072445;28;20037;-57
2021/06/24 08:00:36;;;;;;;25.98;15.88;;;1280.40;768.00;;;;;;5072586;28;20116;-58
2021/06/24 08:03:03;;;;;;;32.88;16.38;;;1254.60;844.80;;;;;;5072514;28;20028;-58
2021/06/24 08:05:29;;;;;;;37.28;17.08;;;1255.30;793.60;;;;;;5072414;28;20135;-57
2021/06/24 08:07:55;;;;;;;35.45;16.70;;;1254.50;819.20;;;;;;5072687;28;20056;-62
2021/06/24 08:10:22;;;;;;;26.60;14.35;;;1229.70;793.60;;;;;;5071802;28;20470;-61
2021/06/24 08:12:48;;;;;;;31.38;14.70;;;1203.90;844.80;;;;;;5072941;28;20051;-60
2021/06/24 08:15:16;;;;;;;30.20;16.45;;;1203.70;844.80;;;;;;5072235;28;20494;-62
2021/06/24 08:17:45;;;;;;;25.00;15.75;;;1178.10;819.20;;;;;;5072330;28;20043;-61
2021/06/24 08:20:12;;;;;;;36.00;14.27;;;1152.70;896.00;;;;;;5072082;28;20089;-62
2021/06/24 08:22:38;;;;;;;36.95;13.88;;;1126.90;896.00;;;;;;5072103;28;20025;-62
2021/06/24 08:25:06;;;;;;;44.75;17.00;;;1126.40;896.00;;;;;;5072260;28;20043;-61
2021/06/24 08:27:32;;;;;;;30.23;14.27;;;1101.20;921.60;;;;;;5072040;28;20024;-62
2021/06/24 08:29:58;;;;;;;45.00;16.52;;;1075.70;947.20;;;;;;5072092;28;20482;-62
2021/06/24 08:32:25;;;;;;;40.15;12.95;;;1075.50;947.20;;;;;;5054064;28;20067;-62
2021/06/24 08:34:51;;;;;;;34.08;15.40;;;1075.70;921.60;;;;;;5072102;28;20378;-62
2021/06/24 08:37:16;;;;;;;38.08;17.17;;;1075.50;921.60;;;;;;5072137;28;20020;-61
2021/06/24 08:39:43;;;;;;;36.50;16.02;;;1050.20;947.20;;;;;;5071705;28;20420;-61
2021/06/24 08:42:12;;;;;;;29.52;14.85;;;1075.20;947.20;;;;;;5071839;28;20016;-62
2021/06/24 08:44:39;;;;;;;46.30;15.93;;;1075.50;947.20;;;;;;5071496;28;20426;-61
2021/06/24 08:47:07;;;;;;;38.05;14.23;;;1075.60;947.20;;;;;;5071700;28;20135;-62
2021/06/24 08:49:36;;;;;;;44.00;14.88;;;1075.60;947.20;;;;;;5071579;28;20028;-62
2021/06/24 08:52:02;;;;;;;43.72;16.80;;;1075.60;972.80;;;;;;5071454;28;20028;-62
2021/06/24 08:54:28;;;;;;;32.10;13.43;;;1075.50;921.60;;;;;;5071607;28;20028;-61
2021/06/24 08:56:53;;;;;;;57.83;17.50;;;1075.40;921.60;;;;;;5053898;28;20470;-61
2021/06/24 08:59:19;;;;;;;39.10;15.35;;;1050.30;947.20;;;;;;5071312;28;20463;-62
2021/06/24 09:01:56;;;;;;;37.72;13.40;;;1050.20;947.20;;;;;;5071438;28;20072;-62
2021/06/24 09:04:28;;;;;;;35.22;13.63;;;1050.20;896.00;;;;;;5071124;28;20059;-62
2021/06/24 09:07:04;;;;;;;43.77;14.03;;;1050.50;896.00;;;;;;5071505;28;20016;-62
2021/06/24 09:09:34;;;;;;;39.83;14.48;;;1050.30;870.40;;;;;;5071269;28;20025;-62
2021/06/24 09:12:02;;;;;;;44.25;14.95;;;1050.00;896.00;;;;;;5071192;28;20028;-62
2021/06/24 09:14:44;;;;;;;34.97;15.68;;;1050.00;896.00;;;;;;5070714;28;20021;-62
2021/06/24 09:17:12;;;;;;;42.30;14.80;;;1049.80;896.00;;;;;;5071053;28;20032;-61
2021/06/24 09:19:43;;;;;;;37.40;13.38;;;1024.90;896.00;;;;;;5070922;28;20506;-62
2021/06/24 09:22:12;;;;;;;52.47;15.43;;;1049.60;921.60;;;;;;5070935;28;20036;-62
2021/06/24 09:24:46;;;;;;;40.85;15.48;;;1049.60;947.20;;;;;;5071057;28;20036;-62
2021/06/24 09:27:17;;;;;;;41.00;14.85;;;1024.90;921.60;;;;;;5070816;28;20039;-62
2021/06/24 09:30:05;;;;;;;38.63;15.27;;;1024.90;844.80;;;;;;5070998;28;20114;-62
2021/06/24 09:32:32;;;;;;;32.90;15.02;;;1024.70;819.20;;;;;;4989413;28;20543;-62
2021/06/24 09:35:01;;;;;;;40.50;14.02;;;1024.60;896.00;;;;;;4989434;28;20104;-62
2021/06/24 09:37:27;;;;;;;56.15;15.27;;;1024.60;921.60;;;;;;4989686;28;20096;-62
2021/06/24 09:39:55;;;;;;;46.78;13.27;;;1024.60;947.20;;;;;;4989512;28;20436;-61
2021/06/24 09:42:22;;;;;;;55.80;15.02;;;1024.60;947.20;;;;;;4989359;28;20077;-61
2021/06/24 09:44:48;;;;;;;37.45;14.45;;;1024.50;947.20;;;;;;4989133;28;20046;-62
2021/06/24 09:47:24;;;;;;;38.97;14.10;;;1024.40;947.20;;;;;;4987640;28;20033;-61
2021/06/24 09:49:57;;;;;;;42.22;13.52;;;1024.40;896.00;;;;;;4987027;28;20129;-61
2021/06/24 09:52:22;;;;;;;;;;;1024.30;896.00;;;;;;4987504;28;20030;-61
2021/06/24 09:54:50;;;;;;;42.33;14.35;;;1024.20;896.00;;;;;;4987119;28;20427;-62
2021/06/24 09:57:24;;;;;;;38.05;13.82;;;1024.30;870.40;;;;;;4987093;28;20565;-62
2021/06/24 09:59:50;;;;;;;51.38;15.55;;;1024.40;870.40;;;;;;4987005;28;20030;-62
2021/06/24 10:02:19;;;;;;;42.13;12.93;;;1024.40;870.40;;;;;;4986834;28;20073;-61
2021/06/24 10:04:46;;;;;;;36.25;13.48;;;1024.50;870.40;;;;;;4987144;28;20083;-61
2021/06/24 10:07:21;;;;;;;47.40;15.57;;;1024.40;870.40;;;;;;4986925;28;20388;-61
2021/06/24 10:09:47;;;;;;;53.75;15.68;;;1024.50;870.40;;;;;;5034521;28;20037;-61
2021/06/24 10:12:18;;;;;;;42.15;14.75;;;1024.40;819.20;;;;;;5068520;28;20074;-61
2021/06/24 10:14:46;;;;;;;42.33;15.13;;;1024.30;819.20;;;;;;5067980;28;20056;-62
2021/06/24 10:17:13;;;;;;;35.47;14.73;;;1024.20;844.80;;;;;;5068314;28;20111;-61
2021/06/24 10:19:44;;;;;;;51.17;16.75;;;1024.00;819.20;;;;;;5068307;28;20056;-62
2021/06/24 10:22:20;;;;;;;45.80;14.35;;;1024.10;870.40;;;;;;5068344;28;20042;-61
2021/06/24 10:24:52;;;;;;;44.08;14.15;;;1024.30;819.20;;;;;;5068343;28;20078;-62
2021/06/24 10:27:18;;;;;;;;;;;1024.20;819.20;;;;;;5068378;28;20024;-62
2021/06/24 10:29:50;;;;;;;51.25;15.45;;;1024.20;844.80;;;;;;5068287;28;20396;-61
2021/06/24 10:32:22;;;;;;;50.90;15.10;;;1024.00;870.40;;;;;;5068502;28;20028;-61
2021/06/24 10:34:49;;;;;;;45.63;14.48;;;1024.00;870.40;;;;;;5068077;28;20492;-61
2021/06/24 10:37:21;;;;;;;32.13;14.13;;;999.20;844.80;;;;;;5068351;28;20120;-61
2021/06/24 10:39:47;;;;;;;44.45;14.68;;;999.10;819.20;;;;;;5068039;28;20367;-61
2021/06/24 10:42:15;;;;;;;41.17;13.75;;;999.00;870.40;;;;;;5068177;28;20037;-61
2021/06/24 10:44:44;;;;;;;46.60;16.23;;;999.10;844.80;;;;;;5067948;28;20048;-61
2021/06/24 10:47:10;;;;;;;41.70;14.18;;;999.00;844.80;;;;;;5068127;28;20037;-63
2021/06/24 10:49:38;;;;;;;46.83;14.75;;;999.20;870.40;;;;;;5068173;28;20059;-61
2021/06/24 10:52:29;;;;;;;45.78;14.15;;;1024.00;819.20;;;;;;5068208;28;20029;-61
2021/06/24 10:54:57;;;;;;;48.47;15.00;;;999.20;844.80;;;;;;5068393;28;20063;-61
2021/06/24 10:57:39;;;;;;;44.95;14.95;;;1024.00;870.40;;;;;;5067991;28;20020;-62
2021/06/24 11:00:36;;;;;;;40.53;14.88;;;1024.00;844.80;;;;;;5068625;28;20033;-62
2021/06/24 11:03:13;;;;;;;42.47;15.77;;;1024.10;819.20;;;;;;5067999;28;20024;-62
2021/06/24 11:05:49;;;;;;;50.78;14.43;;;1024.00;896.00;;;;;;5067387;28;20833;-62
2021/06/24 11:08:19;;;;;;;58.45;15.25;;;1024.10;870.40;;;;;;5068098;28;20435;-61
2021/06/24 11:10:54;;;;;;;38.95;13.80;;;1024.00;844.80;;;;;;5068046;28;20024;-62
2021/06/24 11:13:50;;;;;;;45.40;16.17;;;1024.10;870.40;;;;;;5067820;28;20029;-61
2021/06/24 11:16:16;;;;;;;48.25;13.77;;;1024.00;870.40;;;;;;4986531;28;20396;-62
2021/06/24 11:18:42;;;;;;;46.88;15.18;;;1024.00;921.60;;;;;;5005347;28;20034;-61
2021/06/24 11:21:23;;;;;;;36.05;13.63;;;999.20;870.40;;;;;;5005991;28;20260;-61
2021/06/24 11:23:53;;;;;;;34.50;12.65;;;999.20;844.80;;;;;;5005646;28;20042;-62
2021/06/24 11:26:24;;;;;;;58.75;15.10;;;1024.00;870.40;;;;;;5005715;28;20066;-62
2021/06/24 11:29:01;;;;;;;37.83;14.37;;;1024.00;870.40;;;;;;5005599;28;20034;-62
2021/06/24 11:31:33;;;;;;;43.25;14.07;;;1024.00;870.40;;;;;;5005654;28;20101;-61
2021/06/24 11:34:18;;;;;;;39.10;16.45;;;1024.10;870.40;;;;;;5005581;28;20034;-61
2021/06/24 11:36:55;;;;;;;39.88;13.25;;;1024.10;870.40;;;;;;5005822;28;20149;-61
2021/06/24 11:39:26;;;;;;;46.17;14.70;;;1024.00;844.80;;;;;;5005581;28;20543;-62
2021/06/24 11:41:57;;;;;;;41.10;15.10;;;1024.10;896.00;;;;;;5005635;28;20125;-63
2021/06/24 11:44:45;;;;;;;42.92;15.45;;;1024.10;844.80;;;;;;5007654;28;20069;-62
2021/06/24 11:47:15;;;;;;;46.90;14.68;;;1024.10;819.20;;;;;;5010470;28;20116;-62
2021/06/24 12:03:33;;;;;;;40.47;14.48;;;1024.20;819.20;;;;;;5050158;28;20032;-62
2021/06/24 12:05:59;;;;;;;40.53;15.13;;;1024.30;768.00;;;;;;5050768;28;20033;-63
2021/06/24 12:08:27;;;;;;;41.75;14.73;;;1024.20;819.20;;;;;;5051066;28;20052;-61
2021/06/24 12:11:04;;;;;;;49.85;15.52;;;1024.10;844.80;;;;;;5050679;28;20033;-62
2021/06/24 12:13:33;;;;;;;50.53;15.05;;;1024.10;844.80;;;;;;5050605;28;20082;-62
2021/06/24 12:16:00;;;;;;;52.90;13.27;;;1024.20;819.20;;;;;;5042917;28;20044;-62